createdAt,value
2019-02-22T00:00:11.885Z,51.37
2019-02-22T00:02:40.738Z,48.73
2019-02-22T00:05:09.779Z,47.23
2019-02-22T00:07:38.780Z,47.00
2019-02-22T00:10:07.897Z,45.52
2019-02-22T00:12:36.758Z,44.08
2019-02-22T00:15:06.418Z,42.50
2019-02-22T00:17:35.357Z,44.40
2019-02-22T00:20:05.610Z,42.35
2019-02-22T00:22:34.537Z,41.10
2019-02-22T00:25:03.578Z,43.30
2019-02-22T00:27:32.497Z,38.78
2019-02-22T00:30:01.388Z,34.48
2019-02-22T00:32:30.478Z,37.42
2019-02-22T00:34:59.356Z,35.78
2019-02-22T00:37:28.405Z,37.80
2019-02-22T00:42:43.899Z,35.17
2019-02-22T00:45:12.779Z,34.78
2019-02-22T00:47:41.721Z,37.10
2019-02-22T00:50:10.641Z,38.75
2019-02-22T00:52:39.519Z,39.53
2019-02-22T00:55:08.660Z,43.52
2019-02-22T00:57:37.543Z,37.95
2019-02-22T01:00:09.100Z,36.80
2019-02-22T01:02:38.121Z,35.73
2019-02-22T01:05:07.280Z,36.40
2019-02-22T01:07:36.302Z,36.48
2019-02-22T01:10:06.049Z,37.38
2019-02-22T01:12:35.061Z,36.33
2019-02-22T01:15:04.540Z,35.88
2019-02-22T01:17:34.162Z,36.75
2019-02-22T01:20:03.024Z,38.23
2019-02-22T01:22:31.940Z,43.05
2019-02-22T01:25:00.821Z,39.10
2019-02-22T01:27:29.801Z,41.55
2019-02-22T01:29:58.680Z,38.53
2019-02-22T01:32:27.734Z,38.20
2019-02-22T01:34:56.654Z,38.02
2019-02-22T01:37:25.741Z,34.30
2019-02-22T01:39:54.721Z,34.85
2019-02-22T01:42:23.601Z,32.13
2019-02-22T01:44:52.603Z,32.93
2019-02-22T01:47:21.489Z,32.45
2019-02-22T01:49:50.734Z,36.42
2019-02-22T01:52:19.661Z,33.02
2019-02-22T01:54:48.561Z,34.10
2019-02-22T01:57:17.440Z,33.50
2019-02-22T01:59:46.482Z,28.83
2019-02-22T02:02:15.461Z,31.00
2019-02-22T02:04:44.480Z,31.52
2019-02-22T02:07:13.580Z,32.15
2019-02-22T02:09:42.560Z,33.73
2019-02-22T02:12:11.523Z,30.82
2019-02-22T02:14:40.380Z,33.35
2019-02-22T02:17:09.262Z,35.80
2019-02-22T02:19:38.240Z,31.42
2019-02-22T02:22:07.100Z,29.27
2019-02-22T02:24:36.440Z,32.85
2019-02-22T02:27:05.621Z,33.45
2019-02-22T02:29:34.600Z,31.55
2019-02-22T02:32:03.501Z,40.75
2019-02-22T02:34:32.361Z,37.48
2019-02-22T02:37:01.301Z,32.33
2019-02-22T02:39:30.200Z,32.48
2019-02-22T02:41:59.081Z,27.82
2019-02-22T02:44:28.022Z,30.02
2019-02-22T02:46:56.922Z,26.97
2019-02-22T02:49:25.840Z,29.15
2019-02-22T02:51:54.772Z,25.80
2019-02-22T02:54:23.825Z,24.98
2019-02-22T02:56:52.922Z,21.52
2019-02-22T02:59:21.883Z,24.27
2019-02-22T03:01:50.880Z,24.77
2019-02-22T03:04:20.023Z,24.07
2019-02-22T03:06:50.881Z,24.67
2019-02-22T03:09:19.801Z,22.48
2019-02-22T03:11:48.880Z,24.75
2019-02-22T03:14:18.021Z,24.72
2019-02-22T03:16:47.055Z,26.15
2019-02-22T03:19:15.982Z,21.87
2019-02-22T03:21:44.900Z,22.60
2019-02-22T03:24:13.863Z,23.45
2019-02-22T03:26:42.723Z,21.40
2019-02-22T03:29:11.642Z,21.35
2019-02-22T03:31:40.603Z,20.05
2019-02-22T03:34:09.602Z,18.73
2019-02-22T03:36:38.525Z,19.37
2019-02-22T03:39:07.461Z,17.80
2019-02-22T03:41:36.349Z,17.67
2019-02-22T03:44:05.222Z,16.52
2019-02-22T03:46:34.317Z,15.98
2019-02-22T03:49:03.300Z,15.10
2019-02-22T03:51:32.442Z,16.20
2019-02-22T03:54:01.341Z,10.05
2019-02-22T03:56:30.304Z,11.80
2019-02-22T03:58:59.342Z,10.08
2019-02-22T04:01:28.303Z,9.00
2019-02-22T04:03:57.200Z,9.78
2019-02-22T04:06:26.140Z,8.50
2019-02-22T04:08:55.020Z,6.30
2019-02-22T04:11:23.904Z,6.08
2019-02-22T04:13:52.800Z,7.55
2019-02-22T04:16:21.680Z,9.63
2019-02-22T04:18:50.560Z,8.83
2019-02-22T04:21:19.420Z,8.85
2019-02-22T04:23:48.342Z,9.80
2019-02-22T04:26:17.282Z,10.65
2019-02-22T04:28:46.239Z,11.18
2019-02-22T04:31:15.142Z,10.55
2019-02-22T04:33:44.234Z,10.48
2019-02-22T04:36:13.221Z,14.18
2019-02-22T04:38:42.062Z,17.12
2019-02-22T04:41:11.061Z,17.00
2019-02-22T04:43:39.920Z,14.90
2019-02-22T04:46:08.921Z,11.53
2019-02-22T04:48:37.942Z,16.17
2019-02-22T04:51:07.100Z,14.28
2019-02-22T04:53:36.280Z,9.23
2019-02-22T04:56:05.246Z,6.30
2019-02-22T04:58:34.243Z,6.85
2019-02-22T05:01:03.101Z,10.25
2019-02-22T05:03:32.123Z,12.10
2019-02-22T05:06:01.044Z,12.18
2019-02-22T05:08:29.919Z,15.70
2019-02-22T05:10:58.957Z,19.07
2019-02-22T05:13:27.903Z,17.87
2019-02-22T05:15:56.898Z,16.65
2019-02-22T05:18:25.781Z,12.25
2019-02-22T05:20:54.688Z,12.20
2019-02-22T05:23:23.599Z,12.55
2019-02-22T05:25:52.523Z,17.35
2019-02-22T05:28:21.420Z,17.30
2019-02-22T05:30:50.285Z,18.92
2019-02-22T05:33:19.241Z,17.62
2019-02-22T05:35:48.118Z,19.10
2019-02-22T05:38:17.052Z,20.50
2019-02-22T05:40:45.906Z,20.88
2019-02-22T05:43:14.841Z,22.55
2019-02-22T05:45:43.803Z,21.82
2019-02-22T05:48:12.759Z,23.18
2019-02-22T05:50:41.660Z,19.32
2019-02-22T05:53:10.521Z,20.15
2019-02-22T05:55:39.423Z,19.67
2019-02-22T05:58:08.300Z,19.35
2019-02-22T06:00:37.283Z,14.75
2019-02-22T06:03:06.219Z,16.10
2019-02-22T06:05:35.120Z,13.95
2019-02-22T06:08:04.146Z,14.40
2019-02-22T06:10:33.011Z,18.73
2019-02-22T06:13:02.041Z,16.97
2019-02-22T06:15:31.624Z,16.70
2019-02-22T06:18:00.639Z,17.85
2019-02-22T06:20:29.520Z,16.95
2019-02-22T06:22:58.382Z,16.95
2019-02-22T06:25:27.369Z,16.62
2019-02-22T06:27:56.260Z,14.87
2019-02-22T06:30:25.162Z,15.30
2019-02-22T06:32:54.043Z,15.13
2019-02-22T06:35:22.921Z,18.00
2019-02-22T06:37:51.804Z,15.03
2019-02-22T06:40:20.782Z,13.38
2019-02-22T06:42:49.641Z,16.70
2019-02-22T06:45:18.619Z,23.00
2019-02-22T06:47:47.477Z,29.80
2019-02-22T06:50:16.421Z,19.10
2019-02-22T06:52:45.286Z,16.73
2019-02-22T06:55:14.342Z,18.37
2019-02-22T06:57:43.239Z,20.88
2019-02-22T07:00:13.620Z,18.67
2019-02-22T07:02:42.724Z,21.45
2019-02-22T07:05:11.757Z,28.60
2019-02-22T07:07:40.642Z,23.30
2019-02-22T07:10:11.062Z,21.23
2019-02-22T07:12:44.661Z,19.07
2019-02-22T07:17:41.841Z,20.97
2019-02-22T07:20:11.967Z,19.77
2019-02-22T07:22:40.884Z,15.80
2019-02-22T07:25:11.939Z,15.08
2019-02-22T07:27:40.800Z,16.42
2019-02-22T07:30:11.721Z,12.73
2019-02-22T07:32:40.720Z,13.95
2019-02-22T07:35:10.060Z,14.65
2019-02-22T07:37:38.961Z,15.08
2019-02-22T07:40:08.180Z,17.82
2019-02-22T07:42:37.038Z,18.20
2019-02-22T07:45:09.020Z,17.45
2019-02-22T07:47:38.020Z,17.73
2019-02-22T07:50:09.501Z,18.12
2019-02-22T07:52:38.358Z,16.55
2019-02-22T07:55:08.919Z,20.70
2019-02-22T07:57:39.993Z,27.35
2019-02-22T08:00:11.840Z,26.82
2019-02-22T08:02:40.721Z,27.17
2019-02-22T08:05:09.699Z,25.88
2019-02-22T08:07:39.288Z,27.30
2019-02-22T08:10:08.264Z,25.15
2019-02-22T08:12:37.180Z,22.80
2019-02-22T08:15:08.060Z,32.05
2019-02-22T08:17:37.021Z,27.13
2019-02-22T08:20:08.021Z,17.55
2019-02-22T08:22:36.980Z,19.92
2019-02-22T08:25:07.480Z,16.48
2019-02-22T08:27:36.482Z,15.72
2019-02-22T08:30:07.701Z,22.37
2019-02-22T08:32:36.641Z,17.00
2019-02-22T08:35:06.641Z,17.60
2019-02-22T08:37:35.520Z,19.15
2019-02-22T08:40:05.441Z,15.88
2019-02-22T08:42:34.323Z,15.80
2019-02-22T08:45:03.403Z,16.07
2019-02-22T08:47:32.303Z,17.00
2019-02-22T08:50:01.243Z,14.95
2019-02-22T08:52:30.120Z,14.23
2019-02-22T08:54:59.261Z,13.30
2019-02-22T08:57:28.161Z,13.80
2019-02-22T08:59:57.047Z,12.73
2019-02-22T09:02:26.060Z,13.78
2019-02-22T09:04:54.921Z,14.60
2019-02-22T09:07:24.001Z,13.93
2019-02-22T09:09:52.877Z,12.15
2019-02-22T09:12:21.741Z,14.68
2019-02-22T09:14:50.641Z,11.18
2019-02-22T09:17:19.502Z,11.40
2019-02-22T09:19:48.402Z,11.38
2019-02-22T09:22:22.830Z,11.93
2019-02-22T09:24:47.917Z,10.65
2019-02-22T09:27:16.833Z,9.65
2019-02-22T09:29:45.840Z,10.30
2019-02-22T09:32:14.840Z,9.23
2019-02-22T09:34:46.038Z,10.55
2019-02-22T09:37:14.401Z,9.10
2019-02-22T09:39:43.300Z,8.35
2019-02-22T09:42:12.181Z,7.42
2019-02-22T09:44:41.081Z,8.28
2019-02-22T09:47:09.941Z,7.87
2019-02-22T09:49:38.821Z,7.35
2019-02-22T09:52:07.759Z,9.10
2019-02-22T09:54:36.640Z,7.40
2019-02-22T09:57:05.821Z,8.70
2019-02-22T09:59:34.800Z,10.40
2019-02-22T10:02:03.660Z,9.15
2019-02-22T10:04:32.621Z,7.08
2019-02-22T10:07:01.581Z,8.68
2019-02-22T10:09:30.421Z,8.20
2019-02-22T10:11:59.460Z,8.40
2019-02-22T10:14:28.658Z,8.58
2019-02-22T10:16:57.753Z,8.13
2019-02-22T10:19:26.952Z,7.20
2019-02-22T10:21:57.644Z,9.33
2019-02-22T10:24:26.859Z,5.78
2019-02-22T10:26:55.719Z,5.62
2019-02-22T10:29:25.013Z,5.72
2019-02-22T10:31:54.418Z,6.03
2019-02-22T10:34:23.776Z,6.42
2019-02-22T10:36:53.172Z,5.90
2019-02-22T10:39:22.434Z,9.65
2019-02-22T10:41:51.421Z,8.13
2019-02-22T10:44:20.279Z,6.85
2019-02-22T10:46:49.161Z,6.55
2019-02-22T10:49:18.048Z,5.70
2019-02-22T10:51:47.126Z,5.30
2019-02-22T10:54:16.079Z,5.97
2019-02-22T10:56:44.939Z,5.85
2019-02-22T10:59:13.842Z,5.10
2019-02-22T11:01:42.680Z,4.97
2019-02-22T11:04:11.580Z,5.53
2019-02-22T11:06:40.439Z,6.30
2019-02-22T11:09:09.501Z,5.70
2019-02-22T11:11:38.457Z,5.83
2019-02-22T11:14:07.466Z,5.97
2019-02-22T11:16:36.419Z,7.60
2019-02-22T11:19:05.321Z,7.10
2019-02-22T11:21:34.240Z,7.20
2019-02-22T11:24:03.141Z,6.30
2019-02-22T11:26:32.001Z,5.58
2019-02-22T11:29:00.898Z,5.58
2019-02-22T11:31:29.941Z,5.87
2019-02-22T11:33:58.861Z,5.62
2019-02-22T11:36:27.780Z,5.10
2019-02-22T11:38:56.718Z,5.67
2019-02-22T11:41:26.120Z,5.17
2019-02-22T11:43:55.020Z,4.35
2019-02-22T11:46:23.902Z,5.50
2019-02-22T11:48:52.765Z,5.03
2019-02-22T11:51:21.740Z,6.10
2019-02-22T11:53:50.600Z,5.45
2019-02-22T11:56:19.563Z,5.08
2019-02-22T11:58:48.681Z,5.10
2019-02-22T12:01:17.760Z,4.15
2019-02-22T12:03:46.640Z,4.37
2019-02-22T12:06:15.520Z,4.80
2019-02-22T12:08:44.620Z,5.28
2019-02-22T12:11:13.580Z,4.75
2019-02-22T12:13:42.480Z,4.80
2019-02-22T12:16:11.461Z,7.37
2019-02-22T12:18:40.361Z,6.42
2019-02-22T12:21:09.250Z,4.90
2019-02-22T12:23:38.341Z,5.87
2019-02-22T12:26:07.220Z,5.05
2019-02-22T12:28:36.180Z,5.22
2019-02-22T12:31:05.461Z,4.50
2019-02-22T12:33:34.340Z,7.47
2019-02-22T12:36:03.283Z,6.30
2019-02-22T12:38:32.181Z,6.62
2019-02-22T12:41:01.020Z,7.58
2019-02-22T12:43:29.922Z,6.58
2019-02-22T12:45:58.840Z,6.12
2019-02-22T12:48:27.661Z,5.17
2019-02-22T12:50:56.526Z,4.87
2019-02-22T12:53:25.529Z,5.20
2019-02-22T12:55:54.484Z,4.72
2019-02-22T12:58:23.403Z,5.05
2019-02-22T13:00:52.324Z,5.22
2019-02-22T13:03:21.240Z,6.00
2019-02-22T13:05:50.120Z,7.65
2019-02-22T13:08:19.507Z,6.00
2019-02-22T13:10:48.440Z,6.20
2019-02-22T13:13:17.400Z,5.65
2019-02-22T13:15:46.381Z,7.03
2019-02-22T13:18:15.600Z,4.85
2019-02-22T13:20:44.480Z,5.92
2019-02-22T13:23:13.441Z,5.83
2019-02-22T13:25:42.627Z,6.50
2019-02-22T13:28:11.480Z,4.83
2019-02-22T13:30:40.442Z,3.98
2019-02-22T13:33:09.501Z,5.15
2019-02-22T13:35:38.481Z,5.97
2019-02-22T13:38:07.668Z,5.60
2019-02-22T13:40:36.781Z,7.72
2019-02-22T13:43:05.800Z,6.35
2019-02-22T13:45:34.845Z,5.40
2019-02-22T13:48:03.883Z,9.03
2019-02-22T13:50:32.940Z,7.22
2019-02-22T13:53:01.858Z,5.30
2019-02-22T13:55:30.870Z,28.07
2019-02-22T13:57:59.985Z,9.85
2019-02-22T14:00:28.964Z,5.37
2019-02-22T14:02:57.960Z,4.55
2019-02-22T14:05:27.103Z,4.78
2019-02-22T14:07:56.962Z,5.40
2019-02-22T14:10:26.681Z,4.55
2019-02-22T14:12:55.640Z,4.65
2019-02-22T14:15:24.886Z,4.05
2019-02-22T14:17:54.060Z,4.45
2019-02-22T14:20:23.224Z,5.10
2019-02-22T14:22:52.681Z,4.53
2019-02-22T14:25:21.860Z,4.45
2019-02-22T14:27:50.900Z,5.25
2019-02-22T14:30:20.020Z,5.95
2019-02-22T14:32:49.080Z,6.10
2019-02-22T14:35:18.182Z,5.08
2019-02-22T14:37:47.345Z,5.17
2019-02-22T14:40:16.762Z,5.33
2019-02-22T14:42:45.764Z,5.40
2019-02-22T14:45:14.965Z,5.42
2019-02-22T14:47:44.204Z,5.03
2019-02-22T14:50:15.522Z,5.00
2019-02-22T14:52:44.762Z,4.58
2019-02-22T14:55:14.081Z,5.10
2019-02-22T14:57:45.177Z,6.42
2019-02-22T15:00:16.242Z,7.87
2019-02-22T15:02:45.362Z,5.60
2019-02-22T15:05:15.403Z,4.80
2019-02-22T15:07:44.657Z,7.08
2019-02-22T15:10:13.967Z,6.22
2019-02-22T15:12:43.148Z,7.75
2019-02-22T15:15:17.081Z,9.85
2019-02-22T15:17:59.849Z,18.05
2019-02-22T15:20:29.010Z,30.85
2019-02-22T15:22:58.136Z,23.32
2019-02-22T15:25:27.319Z,33.33
2019-02-22T15:27:56.407Z,45.65
2019-02-22T15:30:25.589Z,68.22
2019-02-22T15:32:54.538Z,58.70
2019-02-22T15:35:23.992Z,76.97
2019-02-22T15:37:53.265Z,50.35
2019-02-22T15:40:22.370Z,20.90
2019-02-22T15:42:51.570Z,10.53
2019-02-22T15:45:20.960Z,22.55
2019-02-22T15:47:50.185Z,17.62
2019-02-22T15:50:19.884Z,9.50
2019-02-22T15:52:50.081Z,13.55
2019-02-22T15:55:19.224Z,12.90
2019-02-22T15:57:48.433Z,9.95
2019-02-22T16:00:26.615Z,7.97
2019-02-22T16:02:55.761Z,7.30
2019-02-22T16:05:26.440Z,6.25
2019-02-22T16:07:55.764Z,6.95
2019-02-22T16:10:24.885Z,6.40
2019-02-22T16:12:54.108Z,6.97
2019-02-22T16:15:23.321Z,10.95
2019-02-22T16:17:52.439Z,10.38
2019-02-22T16:20:21.720Z,6.62
2019-02-22T16:22:51.973Z,8.70
2019-02-22T16:25:21.283Z,11.80
2019-02-22T16:27:50.400Z,12.80
2019-02-22T16:30:21.137Z,16.10
2019-02-22T16:32:50.294Z,9.28
2019-02-22T16:35:19.601Z,10.05
2019-02-22T16:37:48.800Z,7.05
2019-02-22T16:40:17.960Z,8.38
2019-02-22T16:42:47.124Z,8.20
2019-02-22T16:45:16.360Z,8.38
2019-02-22T16:47:45.490Z,8.18
2019-02-22T16:50:15.122Z,8.40
2019-02-22T16:52:45.363Z,7.97
2019-02-22T16:55:17.962Z,11.05
2019-02-22T16:57:47.241Z,10.55
2019-02-22T17:00:17.489Z,9.78
2019-02-22T17:02:47.084Z,8.28
2019-02-22T17:05:17.485Z,10.60
2019-02-22T17:07:46.680Z,8.55
2019-02-22T17:10:15.797Z,11.20
2019-02-22T17:12:45.003Z,13.65
2019-02-22T17:15:15.240Z,12.20
2019-02-22T17:17:44.565Z,9.83
2019-02-22T17:20:15.042Z,11.57
2019-02-22T17:22:44.119Z,13.75
2019-02-22T17:25:20.383Z,11.73
2019-02-22T17:27:49.642Z,8.88
2019-02-22T17:30:20.373Z,9.10
2019-02-22T17:32:49.681Z,7.92
2019-02-22T17:35:20.040Z,10.23
2019-02-22T17:37:49.322Z,11.18
2019-02-22T17:40:24.242Z,10.65
2019-02-22T17:42:53.490Z,9.93
2019-02-22T17:45:22.760Z,10.05
2019-02-22T17:47:52.082Z,8.43
2019-02-22T17:50:21.321Z,8.35
2019-02-22T17:52:50.562Z,8.15
2019-02-22T17:55:19.833Z,9.65
2019-02-22T17:57:49.004Z,11.40
2019-02-22T18:00:19.962Z,10.48
2019-02-22T18:02:49.204Z,7.75
2019-02-22T18:05:18.361Z,9.80
2019-02-22T18:07:47.568Z,8.78
2019-02-22T18:10:16.761Z,10.25
2019-02-22T18:12:45.881Z,9.38
2019-02-22T18:15:17.401Z,8.20
2019-02-22T18:17:47.560Z,9.63
2019-02-22T18:20:16.811Z,8.15
2019-02-22T18:22:46.039Z,7.60
2019-02-22T18:25:15.203Z,8.98
2019-02-22T18:27:44.402Z,10.90
2019-02-22T18:30:16.361Z,11.33
2019-02-22T18:32:45.680Z,14.30
2019-02-22T18:35:14.960Z,13.65
2019-02-22T18:37:44.287Z,20.00
2019-02-22T18:40:20.359Z,20.90
2019-02-22T18:42:49.604Z,17.48
2019-02-22T18:45:18.881Z,24.25
2019-02-22T18:47:48.163Z,24.57
2019-02-22T18:50:17.411Z,23.47
2019-02-22T18:52:46.601Z,16.32
2019-02-22T18:55:15.800Z,22.52
2019-02-22T18:57:45.060Z,18.67
2019-02-22T19:00:17.049Z,14.73
2019-02-22T19:02:48.000Z,16.00
2019-02-22T19:05:17.243Z,21.77
2019-02-22T19:07:46.446Z,16.37
2019-02-22T19:10:17.330Z,15.05
2019-02-22T19:12:46.411Z,11.22
2019-02-22T19:15:16.041Z,11.68
2019-02-22T19:17:45.322Z,12.78
2019-02-22T19:20:16.843Z,10.48
2019-02-22T19:22:46.045Z,10.18
2019-02-22T19:25:15.362Z,10.38
2019-02-22T19:27:46.562Z,12.28
2019-02-22T19:30:20.528Z,13.35
2019-02-22T19:32:49.879Z,15.78
2019-02-22T19:35:19.175Z,13.20
2019-02-22T19:37:48.479Z,10.38
2019-02-22T19:40:23.321Z,10.03
2019-02-22T19:42:52.599Z,11.70
2019-02-22T19:45:21.880Z,11.93
2019-02-22T19:47:51.289Z,17.85
2019-02-22T19:50:21.962Z,22.77
2019-02-22T19:52:51.281Z,12.18
2019-02-22T19:55:21.084Z,9.93
2019-02-22T19:57:50.399Z,12.45
2019-02-22T20:00:20.243Z,12.30
2019-02-22T20:02:49.562Z,12.93
2019-02-22T20:05:18.959Z,15.48
2019-02-22T20:07:48.283Z,12.25
2019-02-22T20:10:22.361Z,21.42
2019-02-22T20:12:51.601Z,12.43
2019-02-22T20:15:20.962Z,14.00
2019-02-22T20:17:54.559Z,20.68
2019-02-22T20:20:22.080Z,14.18
2019-02-22T20:22:51.325Z,13.03
2019-02-22T20:25:22.161Z,14.00
2019-02-22T20:27:51.399Z,15.98
2019-02-22T20:30:20.868Z,19.55
2019-02-22T20:32:50.159Z,21.85
2019-02-22T20:35:24.523Z,21.37
2019-02-22T20:37:53.849Z,18.48
2019-02-22T20:40:23.199Z,15.60
2019-02-22T20:42:52.441Z,22.27
2019-02-22T20:45:21.761Z,13.35
2019-02-22T20:47:51.043Z,16.52
2019-02-22T20:50:20.202Z,28.05
2019-02-22T20:52:49.484Z,28.87
2019-02-22T20:55:18.764Z,38.88
2019-02-22T20:57:48.130Z,23.80
2019-02-22T21:00:19.940Z,20.30
2019-02-22T21:02:49.218Z,19.12
2019-02-22T21:05:18.531Z,17.17
2019-02-22T21:07:47.780Z,17.90
2019-02-22T21:10:18.779Z,17.92
2019-02-22T21:12:47.951Z,19.73
2019-02-22T21:15:17.331Z,17.10
2019-02-22T21:17:46.490Z,13.40
2019-02-22T21:20:18.423Z,16.15
2019-02-22T21:22:47.737Z,17.02
2019-02-22T21:25:16.900Z,22.95
2019-02-22T21:27:46.179Z,22.87
2019-02-22T21:30:20.260Z,23.90
2019-02-22T21:32:49.539Z,26.85
2019-02-22T21:35:18.701Z,17.37
2019-02-22T21:37:47.779Z,16.75
2019-02-22T21:40:17.019Z,17.82
2019-02-22T21:42:46.068Z,19.55
2019-02-22T21:45:16.178Z,17.07
2019-02-22T21:47:54.161Z,16.05
2019-02-22T21:50:17.299Z,15.45
2019-02-22T21:52:46.543Z,13.98
2019-02-22T21:55:16.306Z,15.93
2019-02-22T21:57:45.537Z,15.63
2019-02-22T22:00:23.179Z,14.93
2019-02-22T22:02:52.178Z,22.07
2019-02-22T22:05:21.307Z,24.67
2019-02-22T22:07:50.378Z,17.20
2019-02-22T22:10:19.659Z,16.17
2019-02-22T22:12:48.628Z,17.15
2019-02-22T22:15:17.699Z,17.17
2019-02-22T22:17:46.822Z,14.95
2019-02-22T22:20:15.858Z,14.95
2019-02-22T22:22:44.908Z,16.25
2019-02-22T22:25:15.985Z,17.05
2019-02-22T22:27:44.979Z,20.02
2019-02-22T22:30:15.058Z,22.73
2019-02-22T22:32:44.101Z,20.77
2019-02-22T22:35:18.220Z,19.62
2019-02-22T22:37:47.260Z,18.90
2019-02-22T22:40:16.350Z,18.85
2019-02-22T22:42:45.340Z,19.65
2019-02-22T22:45:17.634Z,19.65
2019-02-22T22:47:46.539Z,19.42
2019-02-22T22:50:16.742Z,17.62
2019-02-22T22:52:45.667Z,16.52
2019-02-22T22:55:14.714Z,16.00
2019-02-22T22:57:43.804Z,17.02
2019-02-22T23:00:53.106Z,18.02
2019-02-22T23:03:22.301Z,21.07
2019-02-22T23:05:51.349Z,22.58
2019-02-22T23:08:20.339Z,21.12
2019-02-22T23:10:49.618Z,19.40
2019-02-22T23:13:18.740Z,19.02
2019-02-22T23:15:47.659Z,18.23
2019-02-22T23:18:16.620Z,18.15
2019-02-22T23:20:45.780Z,19.15
2019-02-22T23:23:14.668Z,19.55
2019-02-22T23:25:43.703Z,19.77
2019-02-22T23:28:12.658Z,19.70
2019-02-22T23:30:41.748Z,22.13
2019-02-22T23:33:10.659Z,21.70
2019-02-22T23:35:39.779Z,16.12
2019-02-22T23:38:08.658Z,15.75
2019-02-22T23:40:37.699Z,16.37
2019-02-22T23:43:06.772Z,15.78
2019-02-22T23:45:35.777Z,14.68
2019-02-22T23:48:04.738Z,15.13
2019-02-22T23:50:33.818Z,14.43
2019-02-22T23:53:02.779Z,13.98
2019-02-22T23:55:31.899Z,15.20
2019-02-22T23:58:00.817Z,14.10
